Time;durP1;ratioP1;P1;durP2;ratioP2;P2;SDS_P1;SDS_P2;PMS_P1;PMS_P2;Temp;Humidity;BMP_temperature;BMP_pressure;BME280_temperature;BME280_humidity;BME280_pressure;Samples;Min_cycle;Max_cycle;Signal;HPM_P1;HPM_P2
2022/11/29 00:01:30;;;;;;;8.20;6.80;;;;;;;-143.84;100.00;45281.38;5112159;28;20503;-79
2022/11/29 00:03:57;;;;;;;8.80;6.73;;;;;;;-143.84;100.00;45271.88;5101078;28;20948;-79
2022/11/29 00:06:27;;;;;;;8.60;7.10;;;;;;;-143.84;100.00;45235.69;5091479;28;20439;-79
2022/11/29 00:08:56;;;;;;;8.77;7.40;;;;;;;-143.84;100.00;45266.16;5091674;28;20490;-79
2022/11/29 00:14:13;;;;;;;7.87;6.43;;;;;;;-143.84;100.00;45250.91;5091510;28;20426;-79
2022/11/29 00:16:40;;;;;;;7.80;5.97;;;;;;;-143.84;100.00;45239.50;5091591;28;20436;-79
2022/11/29 00:19:08;;;;;;;7.17;6.20;;;;;;;-143.84;100.00;45250.91;5091622;28;20468;-79
2022/11/29 00:21:35;;;;;;;6.43;5.80;;;;;;;-143.84;100.00;45260.44;5091180;28;20447;-79
2022/11/29 00:24:02;;;;;;;8.40;6.00;;;;;;;-143.84;100.00;45258.53;5091062;28;20439;-78
2022/11/29 00:26:30;;;;;;;7.30;5.97;;;;;;;-143.84;100.00;45258.53;5101115;28;20486;-78
2022/11/29 00:28:57;;;;;;;5.87;5.03;;;;;;;-143.84;100.00;45250.91;5094254;28;20973;-82
2022/11/29 00:31:29;;;;;;;5.50;4.90;;;;;;;-143.84;100.00;45229.97;5090982;28;20443;-83
2022/11/29 00:33:56;;;;;;;5.43;4.93;;;;;;;-143.84;100.00;45260.44;5092041;28;20432;-83
2022/11/29 00:36:25;;;;;;;5.57;4.70;;;;;;;-143.84;100.00;45250.91;5092410;28;20532;-83
2022/11/29 00:38:52;;;;;;;6.37;5.17;;;;;;;-143.84;100.00;45249.00;5091999;28;20526;-82
2022/11/29 00:41:19;;;;;;;8.60;4.87;;;;;;;-143.84;100.00;45243.31;5092349;28;20500;-83
2022/11/29 00:43:46;;;;;;;4.13;3.80;;;;;;;-143.84;100.00;45252.81;5092093;28;20432;-81
2022/11/29 00:46:14;;;;;;;5.10;4.70;;;;;;;-143.84;100.00;45256.63;5091902;28;21300;-82
2022/11/29 00:48:42;;;;;;;5.40;4.43;;;;;;;-143.84;100.00;45237.59;5091440;28;20424;-83
2022/11/29 00:51:10;;;;;;;5.63;5.13;;;;;;;-143.84;100.00;45247.09;5091790;28;20953;-82
2022/11/29 00:53:37;;;;;;;7.60;5.07;;;;;;;-143.84;100.00;45254.72;5092005;28;20930;-80
2022/11/29 00:56:05;;;;;;;5.10;4.60;;;;;;;-143.84;100.00;45247.09;5091740;28;20497;-80
2022/11/29 00:58:33;;;;;;;4.93;4.43;;;;;;;-143.84;100.00;45260.44;5094750;28;20431;-80
2022/11/29 01:01:00;;;;;;;4.27;3.80;;;;;;;-143.84;100.00;45249.00;5096098;28;20501;-80
2022/11/29 01:03:27;;;;;;;5.90;5.10;;;;;;;-143.84;100.00;45250.91;5096270;28;20505;-80
2022/11/29 01:06:02;;;;;;;5.27;4.77;;;;;;;-143.84;100.00;45275.66;5095612;28;20431;-80
2022/11/29 01:08:29;;;;;;;6.30;5.43;;;;;;;-143.84;100.00;45258.53;5096056;28;20944;-80
2022/11/29 01:11:05;;;;;;;5.30;4.90;;;;;;;-143.84;100.00;45258.53;5095972;28;20493;-81
2022/11/29 01:13:32;;;;;;;6.70;5.97;;;;;;;-143.84;100.00;45241.41;5095767;28;20563;-83
2022/11/29 01:16:00;;;;;;;6.33;5.13;;;;;;;-143.84;100.00;45235.69;5095549;28;20501;-83
2022/11/29 01:18:29;;;;;;;6.37;5.77;;;;;;;-143.84;100.00;45233.78;5095704;28;20447;-83
2022/11/29 01:21:06;;;;;;;5.20;4.70;;;;;;;-143.84;100.00;45250.91;5095646;28;20709;-83
2022/11/29 01:23:34;;;;;;;5.83;5.17;;;;;;;-143.84;100.00;45241.41;5095714;28;20428;-83
2022/11/29 01:26:04;;;;;;;5.43;5.00;;;;;;;-143.84;100.00;45239.50;5096498;28;20552;-84
2022/11/29 01:28:31;;;;;;;5.03;4.63;;;;;;;-143.84;100.00;45258.53;5115488;28;20826;-83
2022/11/29 01:30:58;;;;;;;5.40;4.90;;;;;;;-143.84;100.00;45250.91;5116175;28;20487;-83
2022/11/29 01:33:25;;;;;;;5.70;5.20;;;;;;;-143.84;100.00;45249.00;5116142;28;20807;-83
2022/11/29 01:35:54;;;;;;;7.70;6.90;;;;;;;-143.84;100.00;45226.16;5102614;28;20877;-84
2022/11/29 01:38:23;;;;;;;8.33;6.20;;;;;;;-143.84;100.00;45268.06;5094948;28;20432;-84
2022/11/29 01:40:58;;;;;;;7.37;5.70;;;;;;;-143.84;100.00;45258.53;5095510;28;20471;-84
2022/11/29 01:43:26;;;;;;;8.40;6.67;;;;;;;-143.84;100.00;45277.56;5103329;28;20503;-84
2022/11/29 01:45:53;;;;;;;7.00;6.30;;;;;;;-143.84;100.00;45262.34;5115570;28;20427;-85
2022/11/29 01:48:24;;;;;;;7.53;6.80;;;;;;;-143.84;100.00;45243.31;5115407;28;20431;-84
2022/11/29 01:50:54;;;;;;;7.80;6.77;;;;;;;-143.84;100.00;45250.91;5115583;28;20510;-84
2022/11/29 01:53:22;;;;;;;7.03;6.20;;;;;;;-143.84;100.00;45260.44;5115353;28;20940;-84
2022/11/29 01:55:54;;;;;;;9.07;7.00;;;;;;;-143.84;100.00;45241.41;5114986;28;20435;-84
2022/11/29 01:58:22;;;;;;;10.20;6.63;;;;;;;-143.84;100.00;45249.00;5115665;28;20476;-83
2022/11/29 02:00:49;;;;;;;9.70;7.87;;;;;;;-143.84;100.00;45247.09;5115197;28;20517;-84
2022/11/29 02:03:18;;;;;;;8.07;7.00;;;;;;;-143.84;99.88;45258.53;5115208;28;20442;-83
2022/11/29 02:05:49;;;;;;;9.37;7.77;;;;;;;-143.84;100.00;45245.19;5115337;28;20958;-83
2022/11/29 02:08:23;;;;;;;11.97;7.30;;;;;;;-143.84;100.00;45235.69;5115575;28;20433;-83
2022/11/29 02:11:10;;;;;;;7.43;6.73;;;;;;;-143.84;100.00;45264.25;5114839;28;20917;-84
2022/11/29 02:13:42;;;;;;;6.90;6.20;;;;;;;-143.84;100.00;45241.41;5115332;28;20803;-83
2022/11/29 02:16:16;;;;;;;8.87;7.07;;;;;;;-143.84;100.00;45247.09;5115335;28;20846;-83
2022/11/29 02:18:55;;;;;;;10.90;6.73;;;;;;;-143.84;100.00;45243.31;5115287;28;20423;-84
2022/11/29 02:21:37;;;;;;;7.60;6.80;;;;;;;-143.84;100.00;45250.91;5114999;28;20496;-84
2022/11/29 02:24:44;;;;;;;9.37;7.40;;;;;;;-143.84;100.00;45266.16;5115139;28;20446;-84
2022/11/29 02:27:50;;;;;;;6.83;6.10;;;;;;;-143.84;99.94;45266.16;5114198;28;20508;-84
2022/11/29 02:30:25;;;;;;;12.83;6.97;;;;;;;-143.84;100.00;45262.34;5115050;28;20859;-83
2022/11/29 02:33:19;;;;;;;9.03;6.37;;;;;;;-143.84;100.00;45249.00;5114568;28;20994;-83
2022/11/29 02:36:04;;;;;;;7.97;6.60;;;;;;;-143.84;100.00;45233.78;5114606;28;20435;-83
2022/11/29 02:38:59;;;;;;;7.03;6.13;;;;;;;-143.84;99.88;45254.72;5114833;28;20434;-81
2022/11/29 02:41:40;;;;;;;6.77;6.10;;;;;;;-143.84;100.00;45235.69;5111509;28;20477;-84
2022/11/29 02:44:28;;;;;;;6.83;6.13;;;;;;;-143.84;100.00;45247.09;5114318;28;20438;-83
2022/11/29 02:47:08;;;;;;;6.37;5.73;;;;;;;-143.84;100.00;45254.72;5114362;28;20427;-84
2022/11/29 02:50:02;;;;;;;6.60;6.00;;;;;;;-143.84;100.00;45250.91;5097105;28;20446;-84
2022/11/29 02:52:36;;;;;;;5.20;4.80;;;;;;;-143.84;100.00;45260.44;5114624;28;21214;-84
2022/11/29 02:55:09;;;;;;;5.10;4.70;;;;;;;-143.84;100.00;45262.34;5114560;28;20503;-84
2022/11/29 02:57:43;;;;;;;6.33;5.80;;;;;;;-143.84;100.00;45273.78;5114205;28;20442;-84
2022/11/29 03:00:15;;;;;;;7.53;6.73;;;;;;;-143.84;100.00;45256.63;5114371;28;20523;-84
2022/11/29 03:02:50;;;;;;;6.00;5.10;;;;;;;-143.84;100.00;45231.88;5113844;28;20431;-84
2022/11/29 03:05:29;;;;;;;7.57;6.73;;;;;;;-143.84;100.00;45250.91;5114144;28;20921;-84
2022/11/29 03:08:11;;;;;;;6.70;5.47;;;;;;;-143.84;99.86;45247.09;5114382;28;20434;-84
2022/11/29 03:10:44;;;;;;;7.03;6.33;;;;;;;-143.84;100.00;45243.31;5113879;28;20443;-84
2022/11/29 03:13:17;;;;;;;6.30;5.57;;;;;;;-143.84;99.88;45241.41;5114072;28;20427;-84
2022/11/29 03:15:52;;;;;;;7.27;5.67;;;;;;;-143.84;100.00;45249.00;5114238;28;20419;-84
2022/11/29 03:18:33;;;;;;;6.60;5.90;;;;;;;-143.84;99.86;45252.81;5113352;28;21041;-84
2022/11/29 03:21:10;;;;;;;7.47;6.30;;;;;;;-143.84;99.92;45273.78;5113214;28;20467;-83
2022/11/29 03:23:42;;;;;;;6.60;5.90;;;;;;;-143.84;100.00;45269.97;5113774;28;20846;-83
2022/11/29 03:26:14;;;;;;;7.30;6.00;;;;;;;-143.84;99.93;45249.00;5113595;28;21057;-83
2022/11/29 03:28:46;;;;;;;7.00;6.30;;;;;;;-143.84;99.95;45243.31;5113427;28;20439;-83
2022/11/29 03:31:20;;;;;;;7.40;6.70;;;;;;;-143.84;100.00;45262.34;5113902;28;20426;-83
2022/11/29 03:33:54;;;;;;;7.50;6.80;;;;;;;-143.84;100.00;45266.16;5113717;28;20479;-83
2022/11/29 03:36:33;;;;;;;7.37;6.30;;;;;;;-143.84;100.00;45273.78;5113062;28;20488;-83
2022/11/29 03:39:05;;;;;;;7.20;6.47;;;;;;;-143.84;100.00;45235.69;5113471;28;21307;-83
2022/11/29 03:41:40;;;;;;;7.23;6.50;;;;;;;-143.84;100.00;45264.25;5112734;28;20486;-83
2022/11/29 03:44:13;;;;;;;7.30;6.17;;;;;;;-143.84;99.92;45254.72;5113288;28;20447;-83
2022/11/29 03:46:50;;;;;;;6.53;5.80;;;;;;;-143.84;99.73;45273.78;5113310;28;20491;-83
2022/11/29 03:49:25;;;;;;;7.03;6.20;;;;;;;-143.84;99.34;45229.97;5113139;28;20940;-83
2022/11/29 03:52:03;;;;;;;8.37;7.17;;;;;;;-143.84;99.49;45262.34;5113119;28;20430;-83
2022/11/29 03:54:42;;;;;;;6.90;6.20;;;;;;;-143.84;99.70;45273.78;5113626;28;20434;-83
2022/11/29 03:57:09;;;;;;;7.00;6.33;;;;;;;-143.84;99.75;45258.53;5113161;28;20437;-83
2022/11/29 03:59:52;;;;;;;7.80;6.50;;;;;;;-143.84;99.54;45250.91;5113256;28;20431;-83
2022/11/29 04:02:42;;;;;;;6.63;6.00;;;;;;;-143.84;99.58;45256.63;5105192;28;20431;-83
2022/11/29 04:05:27;;;;;;;8.27;7.47;;;;;;;-143.84;99.30;45256.63;5092652;28;21261;-83
2022/11/29 04:08:10;;;;;;;7.70;6.50;;;;;;;-143.84;99.12;45254.72;5092231;28;20440;-83
2022/11/29 04:10:54;;;;;;;7.20;6.50;;;;;;;-143.84;99.23;45243.31;5092759;28;20805;-83
2022/11/29 04:13:53;;;;;;;9.67;6.57;;;;;;;-143.84;99.06;45249.00;5092865;28;20428;-83
2022/11/29 04:16:45;;;;;;;7.27;6.07;;;;;;;-143.84;99.23;45273.78;5092344;28;20493;-83
2022/11/29 04:19:45;;;;;;;9.03;5.93;;;;;;;-143.84;99.15;45252.81;5092479;28;20837;-83
2022/11/29 04:22:43;;;;;;;10.33;7.70;;;;;;;-143.84;99.41;45275.66;5092180;28;20462;-82
2022/11/29 04:25:41;;;;;;;9.90;7.17;;;;;;;-143.84;99.25;45258.53;5091577;28;20495;-83
2022/11/29 04:28:35;;;;;;;9.10;7.73;;;;;;;-143.84;99.23;45258.53;5091946;28;20428;-83
2022/11/29 04:31:15;;;;;;;6.67;5.83;;;;;;;-143.84;99.30;45279.47;5082942;28;20440;-82
2022/11/29 04:34:14;;;;;;;8.03;7.23;;;;;;;-143.84;99.06;45258.53;5095772;28;21027;-75
2022/11/29 04:37:15;;;;;;;9.47;7.23;;;;;;;-143.84;99.11;45252.81;5087383;28;20444;-83
2022/11/29 04:39:57;;;;;;;8.90;7.20;;;;;;;-143.84;99.18;45264.25;5087120;28;21009;-80
2022/11/29 04:42:51;;;;;;;8.97;8.07;;;;;;;-143.84;99.41;45266.16;5107886;28;20941;-81
2022/11/29 04:45:59;;;;;;;10.57;7.37;;;;;;;-143.84;99.52;45260.44;5094957;28;20447;-79
2022/11/29 04:48:41;;;;;;;10.03;8.10;;;;;;;-143.84;99.09;45269.97;5089459;28;20437;-80
2022/11/29 04:51:21;;;;;;;10.47;6.97;;;;;;;-143.84;98.92;45250.91;5112123;28;20423;-81
2022/11/29 04:53:54;;;;;;;8.97;8.07;;;;;;;-143.84;98.86;45241.41;5112357;28;20467;-80
2022/11/29 04:56:31;;;;;;;9.93;8.23;;;;;;;-143.84;99.07;45252.81;5112286;28;20423;-83
2022/11/29 04:59:06;;;;;;;12.03;7.27;;;;;;;-143.84;99.40;45245.19;5111283;28;20430;-83
2022/11/29 05:01:45;;;;;;;9.47;8.10;;;;;;;-143.84;98.72;45256.63;5111879;28;20473;-84
2022/11/29 05:04:20;;;;;;;9.30;7.33;;;;;;;-143.84;98.70;45254.72;5112332;28;20427;-84
2022/11/29 05:07:01;;;;;;;11.10;8.40;;;;;;;-143.84;98.61;45250.91;5112344;28;20422;-84
2022/11/29 05:09:54;;;;;;;10.93;7.67;;;;;;;-143.84;98.69;45258.53;5112424;28;20423;-80
2022/11/29 05:12:29;;;;;;;9.70;7.80;;;;;;;-143.84;98.35;45247.09;5111651;28;20982;-82
2022/11/29 05:15:39;;;;;;;8.40;7.00;;;;;;;-143.84;98.14;45256.63;5111067;28;21013;-80
2022/11/29 05:18:13;;;;;;;10.13;7.03;;;;;;;-143.84;98.18;45264.25;5110680;28;20443;-82
2022/11/29 05:20:47;;;;;;;14.47;7.60;;;;;;;-143.84;98.47;45258.53;5109290;28;20906;-82
2022/11/29 05:23:33;;;;;;;8.20;6.90;;;;;;;-143.84;98.60;45243.31;5111972;28;20974;-82
2022/11/29 05:26:05;;;;;;;8.63;6.70;;;;;;;-143.84;98.67;45235.69;5111886;28;20479;-80
2022/11/29 05:28:43;;;;;;;8.00;7.00;;;;;;;-143.84;98.46;45269.97;5094564;28;20423;-80
2022/11/29 05:31:39;;;;;;;13.87;7.50;;;;;;;-143.84;98.58;45262.34;5111859;28;20431;-80
2022/11/29 05:34:38;;;;;;;8.47;7.40;;;;;;;-143.84;98.33;45268.06;5111794;28;20443;-81
2022/11/29 05:37:15;;;;;;;8.63;7.73;;;;;;;-143.84;98.26;45252.81;5111781;28;20731;-79
2022/11/29 05:39:57;;;;;;;7.70;6.80;;;;;;;-143.84;98.21;45250.91;5111025;28;20491;-79
2022/11/29 05:42:50;;;;;;;9.57;7.50;;;;;;;-143.84;98.24;45264.25;5103232;28;20468;-79
2022/11/29 05:45:25;;;;;;;8.07;7.27;;;;;;;-143.84;98.40;45260.44;5093968;28;20507;-79
2022/11/29 05:48:02;;;;;;;9.13;7.47;;;;;;;-143.84;98.79;45262.34;5093876;28;20438;-79
2022/11/29 05:50:35;;;;;;;10.20;7.10;;;;;;;-143.84;98.56;45266.16;5094136;28;21138;-79
2022/11/29 05:53:13;;;;;;;9.53;8.23;;;;;;;-143.84;98.34;45262.34;5094001;28;20989;-79
2022/11/29 05:55:50;;;;;;;7.60;6.90;;;;;;;-143.84;98.61;45254.72;5094151;28;20436;-79
2022/11/29 05:58:26;;;;;;;8.40;7.50;;;;;;;-143.84;98.57;45273.78;5094180;28;20435;-79
2022/11/29 06:01:00;;;;;;;7.47;6.77;;;;;;;-143.84;98.47;45226.16;5093881;28;20479;-79
2022/11/29 06:03:36;;;;;;;9.10;7.00;;;;;;;-143.84;98.15;45245.19;5094157;28;20477;-79
2022/11/29 06:06:10;;;;;;;8.47;7.20;;;;;;;-143.84;98.33;45243.31;5094230;28;20852;-79
2022/11/29 06:08:52;;;;;;;8.27;7.47;;;;;;;-143.84;98.42;45269.97;5094574;28;20436;-79
2022/11/29 06:11:29;;;;;;;7.43;6.30;;;;;;;-143.84;98.08;45243.31;5093953;28;20475;-79
2022/11/29 06:14:05;;;;;;;8.30;7.50;;;;;;;-143.84;97.62;45260.44;5092932;28;20956;-79
2022/11/29 06:16:48;;;;;;;8.57;6.90;;;;;;;-143.84;97.70;45258.53;5094193;28;20431;-79
2022/11/29 06:19:42;;;;;;;7.00;6.30;;;;;;;-143.84;97.76;45254.72;5093806;28;20685;-79
2022/11/29 06:22:25;;;;;;;9.50;7.20;;;;;;;-143.84;97.60;45228.06;5088983;28;21004;-79
2022/11/29 06:25:15;;;;;;;7.83;7.10;;;;;;;-143.84;97.86;45262.34;5092054;28;20459;-79
2022/11/29 06:27:58;;;;;;;9.50;7.23;;;;;;;-143.84;97.50;45237.59;5092220;28;20879;-79
2022/11/29 06:30:30;;;;;;;7.50;6.47;;;;;;;-143.84;97.59;45243.31;5092255;28;20561;-79
2022/11/29 06:33:08;;;;;;;7.47;6.50;;;;;;;-143.84;98.03;45233.78;5092119;28;20444;-79
2022/11/29 06:35:44;;;;;;;7.80;7.00;;;;;;;-143.84;98.42;45262.34;5092468;28;20922;-79
2022/11/29 06:38:19;;;;;;;8.40;5.93;;;;;;;-143.84;98.31;45228.06;5093221;28;20443;-79
2022/11/29 06:40:47;;;;;;;7.50;5.53;;;;;;;-143.84;98.65;45237.59;5093130;28;21094;-79
2022/11/29 06:43:15;;;;;;;8.93;6.33;;;;;;;-143.84;98.71;45275.66;5093080;28;20432;-79
2022/11/29 06:45:48;;;;;;;6.33;5.47;;;;;;;-143.84;98.71;45252.81;5092507;28;20432;-79
2022/11/29 06:48:18;;;;;;;7.47;6.77;;;;;;;-143.84;99.24;45241.41;5092721;28;20443;-78
2022/11/29 06:50:56;;;;;;;8.10;6.57;;;;;;;-143.84;98.89;45245.19;5092647;28;20440;-79
2022/11/29 06:53:36;;;;;;;7.63;6.83;;;;;;;-143.84;98.86;45212.84;5092728;28;20440;-78
2022/11/29 06:56:14;;;;;;;9.67;7.00;;;;;;;-143.84;99.52;45235.69;5091311;28;20496;-79
2022/11/29 06:58:58;;;;;;;9.57;6.63;;;;;;;-143.84;99.09;45237.59;5092836;28;20505;-79
2022/11/29 07:01:37;;;;;;;6.50;5.90;;;;;;;-143.84;98.92;45235.69;5092568;28;20533;-79
2022/11/29 07:04:29;;;;;;;6.40;5.80;;;;;;;-143.84;99.22;45209.03;5092649;28;20983;-79
2022/11/29 07:06:58;;;;;;;6.60;6.00;;;;;;;-143.84;99.17;45260.44;5092986;28;20667;-79
2022/11/29 07:09:31;;;;;;;6.83;5.90;;;;;;;-143.84;98.86;45258.53;5074602;28;20440;-79
2022/11/29 07:11:59;;;;;;;5.83;5.30;;;;;;;-143.84;98.76;45243.31;5091963;28;20444;-79
2022/11/29 07:14:26;;;;;;;7.47;6.70;;;;;;;-143.84;99.02;45231.88;5092033;28;20432;-79
2022/11/29 07:17:02;;;;;;;9.60;6.73;;;;;;;-143.84;98.92;45266.16;5092340;28;20465;-79
2022/11/29 07:19:37;;;;;;;7.00;5.73;;;;;;;-143.84;98.63;45229.97;5092418;28;20496;-79
2022/11/29 07:22:16;;;;;;;6.83;6.13;;;;;;;-143.84;99.29;45239.50;5091990;28;20988;-79
2022/11/29 07:24:56;;;;;;;6.10;5.57;;;;;;;-143.84;99.18;45229.97;5091714;28;20473;-79
2022/11/29 07:27:32;;;;;;;6.33;5.73;;;;;;;-143.84;98.69;45228.06;5091269;28;20497;-79
2022/11/29 07:30:10;;;;;;;6.63;5.27;;;;;;;-143.84;98.93;45250.91;5091705;28;20922;-79
2022/11/29 07:32:47;;;;;;;6.23;5.60;;;;;;;-143.84;98.71;45237.59;5090157;28;20452;-79
2022/11/29 07:35:19;;;;;;;5.27;4.87;;;;;;;-143.84;99.10;45258.53;5089982;28;20929;-79
2022/11/29 07:37:59;;;;;;;6.20;5.63;;;;;;;-143.84;99.27;45264.25;5091831;28;20853;-78
2022/11/29 07:40:33;;;;;;;6.90;6.10;;;;;;;-143.84;99.06;45243.31;5092106;28;21248;-78
2022/11/29 07:43:17;;;;;;;5.87;5.33;;;;;;;-143.84;99.29;45256.63;5091685;28;20941;-79
2022/11/29 07:45:45;;;;;;;6.60;5.50;;;;;;;-143.84;99.20;45266.16;5091241;28;20501;-78
2022/11/29 07:48:13;;;;;;;6.40;5.80;;;;;;;-143.84;98.92;45245.19;5091764;28;20547;-78
2022/11/29 07:50:41;;;;;;;7.10;6.50;;;;;;;-143.84;98.97;45220.44;5091202;28;20432;-78
2022/11/29 07:53:16;;;;;;;5.27;4.67;;;;;;;-143.84;99.20;45245.19;5091432;28;20439;-78
2022/11/29 07:55:43;;;;;;;7.17;5.80;;;;;;;-143.84;99.16;45247.09;5091380;28;20901;-78
2022/11/29 07:58:11;;;;;;;6.83;5.20;;;;;;;-143.84;98.52;45222.34;5091122;28;20462;-79
2022/11/29 08:00:40;;;;;;;5.90;5.37;;;;;;;-143.84;99.19;45222.34;5091209;28;20875;-78
2022/11/29 08:03:08;;;;;;;5.43;4.93;;;;;;;-143.84;98.38;45250.91;5091348;28;20432;-78
2022/11/29 08:05:36;;;;;;;5.37;4.97;;;;;;;-143.84;98.78;45249.00;5091263;28;20444;-78
2022/11/29 08:08:03;;;;;;;5.23;4.80;;;;;;;-143.84;98.24;45254.72;5091142;28;20866;-79
2022/11/29 08:10:33;;;;;;;5.53;5.03;;;;;;;-143.84;98.26;45222.34;5091158;28;20938;-79
2022/11/29 08:13:00;;;;;;;6.10;5.53;;;;;;;-143.84;97.98;45239.50;5091142;28;20535;-78
2022/11/29 08:15:27;;;;;;;8.80;5.17;;;;;;;-143.84;98.04;45239.50;5091303;28;20420;-79
2022/11/29 08:17:54;;;;;;;4.63;4.30;;;;;;;-143.84;97.92;45207.13;5091558;28;20436;-79
2022/11/29 08:20:21;;;;;;;5.90;5.40;;;;;;;-143.84;98.18;45271.88;5090645;28;20470;-79
2022/11/29 08:22:54;;;;;;;5.30;4.67;;;;;;;-143.84;97.56;45233.78;5090622;28;21385;-79
2022/11/29 08:25:21;;;;;;;4.20;3.90;;;;;;;-143.84;97.76;45247.09;5090836;28;20546;-78
2022/11/29 08:27:50;;;;;;;4.47;4.07;;;;;;;-143.84;98.14;45258.53;5090796;28;20448;-78
2022/11/29 08:30:21;;;;;;;5.47;4.63;;;;;;;-143.84;97.95;45239.50;5090626;28;20444;-78
2022/11/29 08:32:49;;;;;;;4.63;4.23;;;;;;;-143.84;98.01;45228.06;5090636;28;20939;-78
2022/11/29 08:35:16;;;;;;;6.07;4.70;;;;;;;-143.84;97.66;45237.59;5090541;28;21084;-79
2022/11/29 08:37:44;;;;;;;4.47;4.13;;;;;;;-143.84;97.55;45237.59;5090478;28;20440;-79
2022/11/29 08:40:12;;;;;;;4.40;4.10;;;;;;;-143.84;97.87;45214.72;5090811;28;20470;-79
2022/11/29 08:42:40;;;;;;;3.90;3.70;;;;;;;-143.84;97.87;45235.69;5101582;28;20487;-79
2022/11/29 08:45:10;;;;;;;4.47;4.00;;;;;;;-143.84;98.06;45224.25;5111618;28;21196;-79
2022/11/29 08:47:37;;;;;;;4.70;4.40;;;;;;;-143.84;97.43;45250.91;5111169;28;20447;-79
2022/11/29 08:50:09;;;;;;;4.13;3.73;;;;;;;-143.84;97.71;45237.59;5111156;28;20797;-79
2022/11/29 08:55:24;;;;;;;3.67;3.43;;;;;;;-143.84;98.09;45229.97;5111006;28;20430;-79
2022/11/29 08:57:53;;;;;;;3.87;3.57;;;;;;;-143.84;98.37;45214.72;5111033;28;20458;-79
2022/11/29 09:00:21;;;;;;;3.23;2.93;;;;;;;-143.84;98.27;45262.34;5110660;28;20446;-79
2022/11/29 09:02:49;;;;;;;4.47;3.80;;;;;;;-143.84;98.63;45231.88;5110361;28;20475;-79
2022/11/29 09:05:16;;;;;;;4.20;3.50;;;;;;;-143.84;98.61;45239.50;5110491;28;20500;-79
2022/11/29 09:07:45;;;;;;;3.77;3.47;;;;;;;-143.84;98.34;45283.28;5110986;28;20443;-79
2022/11/29 09:10:12;;;;;;;3.77;3.50;;;;;;;-143.84;98.12;45239.50;5110635;28;20522;-79
2022/11/29 09:12:41;;;;;;;4.27;3.93;;;;;;;-143.84;98.08;45264.25;5110729;28;20845;-79
2022/11/29 09:15:11;;;;;;;3.80;3.50;;;;;;;-143.84;98.11;45229.97;5110987;28;20442;-78
2022/11/29 09:17:39;;;;;;;3.33;3.13;;;;;;;-143.84;97.68;45258.53;5110507;28;20437;-78
2022/11/29 09:20:08;;;;;;;4.07;3.73;;;;;;;-143.84;97.60;45266.16;5114632;28;21130;-78
2022/11/29 09:22:35;;;;;;;4.40;3.90;;;;;;;-143.84;97.74;45237.59;5114911;28;20947;-78
2022/11/29 09:25:02;;;;;;;4.30;4.00;;;;;;;-143.84;97.52;45243.31;5114753;28;20447;-78
2022/11/29 09:27:29;;;;;;;4.03;3.73;;;;;;;-143.84;97.69;45245.19;5114310;28;20447;-79
2022/11/29 09:29:56;;;;;;;4.60;4.30;;;;;;;-143.84;97.47;45239.50;5114805;28;20513;-79
2022/11/29 09:32:23;;;;;;;3.10;2.90;;;;;;;-143.84;97.26;45250.91;5114572;28;20431;-78
2022/11/29 09:34:52;;;;;;;6.60;4.10;;;;;;;-143.84;97.39;45228.06;5114450;28;20431;-78
2022/11/29 09:37:19;;;;;;;4.23;3.83;;;;;;;-143.84;97.69;45224.25;5114458;28;20493;-78
2022/11/29 09:39:46;;;;;;;5.60;5.10;;;;;;;-143.84;97.47;45228.06;5114338;28;20957;-78
2022/11/29 09:42:42;;;;;;;4.10;3.77;;;;;;;-143.84;98.26;45250.91;5114669;28;20471;-78
2022/11/29 09:45:12;;;;;;;6.33;4.40;;;;;;;-143.84;98.58;45233.78;5114834;28;20514;-78
2022/11/29 09:48:05;;;;;;;5.23;4.73;;;;;;;-143.84;98.41;45250.91;5114363;28;20439;-78
2022/11/29 09:50:35;;;;;;;4.60;4.20;;;;;;;-143.84;98.66;45229.97;5100746;28;20442;-78
2022/11/29 09:53:18;;;;;;;8.00;4.90;;;;;;;-143.84;98.56;45228.06;5114529;28;20439;-78
2022/11/29 09:55:59;;;;;;;4.87;4.37;;;;;;;-143.84;98.60;45247.09;5114381;28;20574;-78
2022/11/29 09:58:31;;;;;;;4.83;4.30;;;;;;;-143.84;99.34;45252.81;5113937;28;20443;-78
2022/11/29 10:01:06;;;;;;;4.27;3.90;;;;;;;-143.84;99.41;45226.16;5114071;28;20467;-77
2022/11/29 10:03:38;;;;;;;4.20;3.80;;;;;;;-143.84;99.71;45254.72;5114160;28;20891;-78
2022/11/29 10:06:14;;;;;;;4.90;4.37;;;;;;;-143.84;99.47;45256.63;5114005;28;20442;-78
2022/11/29 10:08:47;;;;;;;4.10;3.80;;;;;;;-143.84;99.34;45241.41;5113787;28;20484;-78
2022/11/29 10:11:21;;;;;;;4.63;4.20;;;;;;;-143.84;99.22;45243.31;5113958;28;20443;-78
2022/11/29 10:13:52;;;;;;;4.37;3.97;;;;;;;-143.84;99.16;45235.69;5113723;28;20440;-78
2022/11/29 10:16:25;;;;;;;4.33;4.03;;;;;;;-143.84;98.83;45245.19;5113309;28;20496;-78
2022/11/29 10:19:02;;;;;;;4.90;3.80;;;;;;;-143.84;99.42;45235.69;5114120;28;20541;-78
2022/11/29 10:21:35;;;;;;;4.43;4.03;;;;;;;-143.84;99.08;45231.88;5113836;28;20539;-78
2022/11/29 10:24:07;;;;;;;4.93;4.20;;;;;;;-143.84;99.27;45243.31;5113394;28;20527;-78
2022/11/29 10:26:34;;;;;;;6.40;4.57;;;;;;;-143.84;99.15;45258.53;5113388;28;20483;-78
2022/11/29 10:29:01;;;;;;;12.10;5.50;;;;;;;-143.84;98.57;45237.59;5113569;28;20949;-78
2022/11/29 10:31:32;;;;;;;7.23;4.47;;;;;;;-143.84;99.03;45228.06;5112347;28;20440;-78
2022/11/29 10:34:02;;;;;;;6.37;4.63;;;;;;;-143.84;98.72;45231.88;5113473;28;20930;-78
2022/11/29 10:36:36;;;;;;;5.13;4.60;;;;;;;-143.84;98.34;45237.59;5113304;28;20509;-78
2022/11/29 10:39:10;;;;;;;6.93;4.97;;;;;;;-143.84;98.35;45250.91;5113301;28;20578;-78
2022/11/29 10:41:37;;;;;;;7.27;4.40;;;;;;;-143.84;98.10;45231.88;5113405;28;20520;-78
2022/11/29 10:44:05;;;;;;;6.07;5.00;;;;;;;-143.84;98.35;45210.94;5113547;28;20436;-78
2022/11/29 10:46:34;;;;;;;5.90;4.80;;;;;;;-143.84;98.09;45241.41;5113095;28;20445;-78
2022/11/29 10:49:06;;;;;;;7.33;5.77;;;;;;;-143.84;98.33;45231.88;5113268;28;20435;-78
2022/11/29 10:51:35;;;;;;;7.70;4.73;;;;;;;-143.84;98.20;45233.78;5113343;28;20438;-78
2022/11/29 10:54:20;;;;;;;5.70;5.20;;;;;;;-143.84;98.41;45228.06;5112897;28;20436;-78
2022/11/29 10:56:48;;;;;;;7.43;5.20;;;;;;;-143.84;98.18;45233.78;5112451;28;21013;-78
2022/11/29 10:59:22;;;;;;;7.23;5.00;;;;;;;-143.84;98.55;45237.59;5112383;28;21040;-78
2022/11/29 11:01:50;;;;;;;5.43;4.40;;;;;;;-143.84;98.47;45203.31;5112246;28;20507;-78
2022/11/29 11:04:26;;;;;;;15.60;4.40;;;;;;;-143.84;98.41;45209.03;5112613;28;20443;-78
2022/11/29 11:06:56;;;;;;;5.07;4.60;;;;;;;-143.84;98.40;45243.31;5112504;28;20448;-78
2022/11/29 11:09:30;;;;;;;4.70;4.10;;;;;;;-143.84;98.47;45216.63;5112674;28;20477;-78
2022/11/29 11:12:00;;;;;;;11.10;4.60;;;;;;;-143.84;98.42;45241.41;5111550;28;20456;-78
2022/11/29 11:14:29;;;;;;;4.43;4.03;;;;;;;-143.84;98.41;45239.50;5111390;28;20522;-78
2022/11/29 11:17:13;;;;;;;6.30;4.93;;;;;;;-143.84;98.09;45212.84;5095701;28;20448;-78
2022/11/29 11:19:40;;;;;;;7.70;4.57;;;;;;;-143.84;98.38;45241.41;5091744;28;20444;-78
2022/11/29 11:22:21;;;;;;;8.20;5.17;;;;;;;-143.84;98.42;45237.59;5091790;28;20464;-78
2022/11/29 11:24:57;;;;;;;4.23;3.80;;;;;;;-143.84;98.39;45201.41;5091906;28;20807;-78
2022/11/29 11:27:30;;;;;;;4.07;3.73;;;;;;;-143.84;98.12;45231.88;5091358;28;20491;-78
2022/11/29 11:29:58;;;;;;;7.00;5.40;;;;;;;-143.84;97.80;45218.53;5091511;28;20440;-78
2022/11/29 11:32:25;;;;;;;7.00;4.40;;;;;;;-143.84;97.89;45231.88;5101865;28;20546;-78
2022/11/29 11:34:54;;;;;;;7.83;6.00;;;;;;;-143.84;98.05;45231.88;5111672;28;20884;-78
2022/11/29 11:37:25;;;;;;;5.77;5.10;;;;;;;-143.84;97.87;45212.84;5112163;28;20572;-78
2022/11/29 11:39:54;;;;;;;6.50;5.50;;;;;;;-143.84;97.71;45237.59;5112013;28;20436;-78
2022/11/29 11:42:37;;;;;;;5.77;5.23;;;;;;;-143.84;97.83;45216.63;5111487;28;20478;-78
2022/11/29 11:45:20;;;;;;;5.90;5.30;;;;;;;-143.84;97.43;45233.78;5111848;28;20498;-78
2022/11/29 11:47:50;;;;;;;5.47;4.60;;;;;;;-143.84;97.18;45243.31;5111760;28;20471;-78
2022/11/29 11:50:27;;;;;;;5.93;5.33;;;;;;;-143.84;97.27;45228.06;5111949;28;20430;-78
2022/11/29 11:52:58;;;;;;;6.23;5.67;;;;;;;-143.84;97.05;45254.72;5111623;28;21025;-78
2022/11/29 11:55:33;;;;;;;6.17;5.57;;;;;;;-143.84;97.24;45197.59;5111792;28;20444;-78